sensor_id;sensor_type;location;lat;lon;timestamp;temperature;humidity
20831;DHT22;10576;53.556;9.868;2022-12-18T00:01:36;-4.70;99.90
20831;DHT22;10576;53.556;9.868;2022-12-18T00:04:04;-4.70;99.90
20831;DHT22;10576;53.556;9.868;2022-12-18T00:06:31;-4.80;99.90
20831;DHT22;10576;53.556;9.868;2022-12-18T00:08:58;-4.80;99.90
20831;DHT22;10576;53.556;9.868;2022-12-18T00:11:26;-4.90;99.90
20831;DHT22;10576;53.556;9.868;2022-12-18T00:13:54;-4.80;99.90
20831;DHT22;10576;53.556;9.868;2022-12-18T00:16:22;-4.80;99.90
20831;DHT22;10576;53.556;9.868;2022-12-18T00:18:49;-4.80;99.90
20831;DHT22;10576;53.556;9.868;2022-12-18T00:21:15;-4.80;99.90
20831;DHT22;10576;53.556;9.868;2022-12-18T00:23:42;-4.90;99.90
20831;DHT22;10576;53.556;9.868;2022-12-18T00:26:13;-4.90;99.90
20831;DHT22;10576;53.556;9.868;2022-12-18T00:28:40;-4.90;99.90
20831;DHT22;10576;53.556;9.868;2022-12-18T00:31:11;-4.90;99.90
20831;DHT22;10576;53.556;9.868;2022-12-18T00:33:38;-4.90;99.90
20831;DHT22;10576;53.556;9.868;2022-12-18T00:36:04;-4.80;99.90
20831;DHT22;10576;53.556;9.868;2022-12-18T00:38:30;-4.80;99.90
20831;DHT22;10576;53.556;9.868;2022-12-18T00:40:55;-4.70;99.90
20831;DHT22;10576;53.556;9.868;2022-12-18T00:43:21;-4.80;99.90
20831;DHT22;10576;53.556;9.868;2022-12-18T00:45:47;-4.80;99.90
20831;DHT22;10576;53.556;9.868;2022-12-18T00:48:12;-4.80;99.90
20831;DHT22;10576;53.556;9.868;2022-12-18T00:50:38;-4.80;99.90
20831;DHT22;10576;53.556;9.868;2022-12-18T00:53:03;-4.90;99.90
20831;DHT22;10576;53.556;9.868;2022-12-18T00:55:29;-4.90;99.90
20831;DHT22;10576;53.556;9.868;2022-12-18T00:57:55;-4.90;99.90
20831;DHT22;10576;53.556;9.868;2022-12-18T01:00:21;-4.90;99.90
20831;DHT22;10576;53.556;9.868;2022-12-18T01:02:46;-4.80;99.90
20831;DHT22;10576;53.556;9.868;2022-12-18T01:05:13;-4.80;99.90
20831;DHT22;10576;53.556;9.868;2022-12-18T01:07:39;-4.90;99.90
20831;DHT22;10576;53.556;9.868;2022-12-18T01:10:05;-4.80;99.90
20831;DHT22;10576;53.556;9.868;2022-12-18T01:12:31;-4.80;99.90
20831;DHT22;10576;53.556;9.868;2022-12-18T01:14:57;-4.80;99.90
20831;DHT22;10576;53.556;9.868;2022-12-18T01:17:23;-4.80;99.90
20831;DHT22;10576;53.556;9.868;2022-12-18T01:19:48;-4.90;99.90
20831;DHT22;10576;53.556;9.868;2022-12-18T01:22:14;-5.00;99.90
20831;DHT22;10576;53.556;9.868;2022-12-18T01:24:39;-5.00;99.90
20831;DHT22;10576;53.556;9.868;2022-12-18T01:27:05;-5.00;99.90
20831;DHT22;10576;53.556;9.868;2022-12-18T01:29:31;-5.10;99.90
20831;DHT22;10576;53.556;9.868;2022-12-18T01:31:56;-5.10;99.90
20831;DHT22;10576;53.556;9.868;2022-12-18T01:34:23;-5.10;99.90
20831;DHT22;10576;53.556;9.868;2022-12-18T01:36:48;-5.10;99.90
20831;DHT22;10576;53.556;9.868;2022-12-18T01:39:15;-5.10;99.90
20831;DHT22;10576;53.556;9.868;2022-12-18T01:41:41;-5.00;99.90
20831;DHT22;10576;53.556;9.868;2022-12-18T01:49:55;-4.90;99.90
20831;DHT22;10576;53.556;9.868;2022-12-18T01:52:21;-4.90;99.90
20831;DHT22;10576;53.556;9.868;2022-12-18T01:54:49;-4.80;99.90
20831;DHT22;10576;53.556;9.868;2022-12-18T01:57:16;-4.80;99.90
20831;DHT22;10576;53.556;9.868;2022-12-18T01:59:43;-4.80;99.90
20831;DHT22;10576;53.556;9.868;2022-12-18T02:02:11;-4.70;99.90
20831;DHT22;10576;53.556;9.868;2022-12-18T02:04:37;-4.70;99.90
20831;DHT22;10576;53.556;9.868;2022-12-18T02:09:35;-4.80;99.90
20831;DHT22;10576;53.556;9.868;2022-12-18T02:12:18;-4.70;99.90
20831;DHT22;10576;53.556;9.868;2022-12-18T02:15:00;-4.70;99.90
20831;DHT22;10576;53.556;9.868;2022-12-18T02:17:57;-4.70;99.90
20831;DHT22;10576;53.556;9.868;2022-12-18T02:20:28;-4.70;99.90
20831;DHT22;10576;53.556;9.868;2022-12-18T02:26:34;-4.70;99.90
20831;DHT22;10576;53.556;9.868;2022-12-18T02:29:15;-4.70;99.90
20831;DHT22;10576;53.556;9.868;2022-12-18T02:31:51;-4.80;99.90
20831;DHT22;10576;53.556;9.868;2022-12-18T02:34:19;-4.80;99.90
20831;DHT22;10576;53.556;9.868;2022-12-18T02:36:46;-4.70;99.90
20831;DHT22;10576;53.556;9.868;2022-12-18T02:39:14;-4.80;99.90
20831;DHT22;10576;53.556;9.868;2022-12-18T02:41:40;-4.80;99.90
20831;DHT22;10576;53.556;9.868;2022-12-18T02:44:11;-4.80;99.90
20831;DHT22;10576;53.556;9.868;2022-12-18T02:46:44;-4.90;99.90
20831;DHT22;10576;53.556;9.868;2022-12-18T02:54:48;-5.00;99.90
20831;DHT22;10576;53.556;9.868;2022-12-18T03:00:39;-5.10;99.90
20831;DHT22;10576;53.556;9.868;2022-12-18T03:05:33;-5.20;99.90
20831;DHT22;10576;53.556;9.868;2022-12-18T03:08:06;-5.30;99.90
20831;DHT22;10576;53.556;9.868;2022-12-18T03:10:39;-5.30;99.90
20831;DHT22;10576;53.556;9.868;2022-12-18T03:13:10;-5.50;99.90
20831;DHT22;10576;53.556;9.868;2022-12-18T03:15:42;-5.40;99.90
20831;DHT22;10576;53.556;9.868;2022-12-18T03:18:22;-5.40;99.90
20831;DHT22;10576;53.556;9.868;2022-12-18T03:20:49;-5.30;99.90
20831;DHT22;10576;53.556;9.868;2022-12-18T03:23:21;-5.40;99.90
20831;DHT22;10576;53.556;9.868;2022-12-18T03:25:51;-5.50;99.90
20831;DHT22;10576;53.556;9.868;2022-12-18T03:28:21;-5.60;99.90
20831;DHT22;10576;53.556;9.868;2022-12-18T03:30:49;-5.70;99.90
20831;DHT22;10576;53.556;9.868;2022-12-18T03:33:19;-5.70;99.90
20831;DHT22;10576;53.556;9.868;2022-12-18T03:35:49;-5.90;99.90
20831;DHT22;10576;53.556;9.868;2022-12-18T03:38:16;-5.90;99.90
20831;DHT22;10576;53.556;9.868;2022-12-18T03:46:18;-6.00;99.90
20831;DHT22;10576;53.556;9.868;2022-12-18T03:48:53;-6.00;99.90
20831;DHT22;10576;53.556;9.868;2022-12-18T03:54:00;-6.00;99.90
20831;DHT22;10576;53.556;9.868;2022-12-18T03:56:31;-6.00;99.90
20831;DHT22;10576;53.556;9.868;2022-12-18T03:59:00;-5.90;99.90
20831;DHT22;10576;53.556;9.868;2022-12-18T04:01:38;-5.90;99.90
20831;DHT22;10576;53.556;9.868;2022-12-18T04:04:05;-6.00;99.90
20831;DHT22;10576;53.556;9.868;2022-12-18T04:06:35;-6.00;99.90
20831;DHT22;10576;53.556;9.868;2022-12-18T04:09:01;-6.00;99.90
20831;DHT22;10576;53.556;9.868;2022-12-18T04:11:27;-5.90;99.90
20831;DHT22;10576;53.556;9.868;2022-12-18T04:13:56;-6.00;99.90
20831;DHT22;10576;53.556;9.868;2022-12-18T04:16:26;-6.00;99.90
20831;DHT22;10576;53.556;9.868;2022-12-18T04:18:52;-6.00;99.90
20831;DHT22;10576;53.556;9.868;2022-12-18T04:21:19;-6.00;99.90
20831;DHT22;10576;53.556;9.868;2022-12-18T04:23:45;-6.00;99.90
20831;DHT22;10576;53.556;9.868;2022-12-18T04:26:10;-6.00;99.90
20831;DHT22;10576;53.556;9.868;2022-12-18T04:28:37;-6.00;99.90
20831;DHT22;10576;53.556;9.868;2022-12-18T04:31:03;-6.00;99.90
20831;DHT22;10576;53.556;9.868;2022-12-18T04:33:28;-5.90;99.90
20831;DHT22;10576;53.556;9.868;2022-12-18T04:35:54;-5.80;99.90
20831;DHT22;10576;53.556;9.868;2022-12-18T04:38:20;-5.80;99.90
20831;DHT22;10576;53.556;9.868;2022-12-18T04:40:45;-5.70;99.90
20831;DHT22;10576;53.556;9.868;2022-12-18T04:43:11;-5.70;99.90
20831;DHT22;10576;53.556;9.868;2022-12-18T04:45:37;-5.70;99.90
20831;DHT22;10576;53.556;9.868;2022-12-18T04:48:03;-5.60;99.90
20831;DHT22;10576;53.556;9.868;2022-12-18T04:50:29;-5.60;99.90
20831;DHT22;10576;53.556;9.868;2022-12-18T04:52:55;-5.60;99.90
20831;DHT22;10576;53.556;9.868;2022-12-18T04:55:24;-5.50;99.90
20831;DHT22;10576;53.556;9.868;2022-12-18T04:57:50;-5.50;99.90
20831;DHT22;10576;53.556;9.868;2022-12-18T05:00:15;-5.50;99.90
20831;DHT22;10576;53.556;9.868;2022-12-18T05:05:08;-5.50;99.90
20831;DHT22;10576;53.556;9.868;2022-12-18T05:07:34;-5.50;99.90
20831;DHT22;10576;53.556;9.868;2022-12-18T05:09:59;-5.60;99.90
20831;DHT22;10576;53.556;9.868;2022-12-18T05:12:25;-5.60;99.90
20831;DHT22;10576;53.556;9.868;2022-12-18T05:14:51;-5.60;99.90
20831;DHT22;10576;53.556;9.868;2022-12-18T05:17:17;-5.60;99.90
20831;DHT22;10576;53.556;9.868;2022-12-18T05:19:43;-5.60;99.90
20831;DHT22;10576;53.556;9.868;2022-12-18T05:22:09;-5.50;99.90
20831;DHT22;10576;53.556;9.868;2022-12-18T05:24:35;-7.10;99.90
20831;DHT22;10576;53.556;9.868;2022-12-18T05:27:00;-5.90;99.90
20831;DHT22;10576;53.556;9.868;2022-12-18T05:29:26;-6.00;99.90
20831;DHT22;10576;53.556;9.868;2022-12-18T05:31:52;-6.00;99.90
20831;DHT22;10576;53.556;9.868;2022-12-18T05:34:18;-6.10;99.90
20831;DHT22;10576;53.556;9.868;2022-12-18T05:36:43;-6.10;99.90
20831;DHT22;10576;53.556;9.868;2022-12-18T05:39:09;-6.20;99.90
20831;DHT22;10576;53.556;9.868;2022-12-18T05:41:35;-6.10;99.90
20831;DHT22;10576;53.556;9.868;2022-12-18T05:44:01;-6.10;99.90
20831;DHT22;10576;53.556;9.868;2022-12-18T05:46:27;-6.30;99.90
20831;DHT22;10576;53.556;9.868;2022-12-18T05:48:53;-6.40;99.90
20831;DHT22;10576;53.556;9.868;2022-12-18T05:51:21;-6.30;99.90
20831;DHT22;10576;53.556;9.868;2022-12-18T05:53:47;-6.30;99.90
20831;DHT22;10576;53.556;9.868;2022-12-18T05:56:18;-6.30;99.90
20831;DHT22;10576;53.556;9.868;2022-12-18T05:58:45;-6.40;99.90
20831;DHT22;10576;53.556;9.868;2022-12-18T06:01:19;-6.40;99.90
20831;DHT22;10576;53.556;9.868;2022-12-18T06:03:45;-6.40;99.90
20831;DHT22;10576;53.556;9.868;2022-12-18T06:08:44;-6.30;99.90
20831;DHT22;10576;53.556;9.868;2022-12-18T06:11:10;-6.30;99.90
20831;DHT22;10576;53.556;9.868;2022-12-18T06:13:36;-6.20;99.90
20831;DHT22;10576;53.556;9.868;2022-12-18T06:16:05;-6.20;99.90
20831;DHT22;10576;53.556;9.868;2022-12-18T06:18:32;-6.20;99.90
20831;DHT22;10576;53.556;9.868;2022-12-18T06:20:59;-6.20;99.90
20831;DHT22;10576;53.556;9.868;2022-12-18T06:23:25;-6.30;99.90
20831;DHT22;10576;53.556;9.868;2022-12-18T06:25:51;-6.40;99.90
20831;DHT22;10576;53.556;9.868;2022-12-18T06:28:17;-6.30;99.90
20831;DHT22;10576;53.556;9.868;2022-12-18T06:30:46;-6.30;99.90
20831;DHT22;10576;53.556;9.868;2022-12-18T06:33:12;-6.30;99.90
20831;DHT22;10576;53.556;9.868;2022-12-18T06:35:38;-6.30;99.90
20831;DHT22;10576;53.556;9.868;2022-12-18T06:38:03;-6.30;99.90
20831;DHT22;10576;53.556;9.868;2022-12-18T06:40:29;-6.30;99.90
20831;DHT22;10576;53.556;9.868;2022-12-18T06:42:55;-6.30;99.90
20831;DHT22;10576;53.556;9.868;2022-12-18T06:45:21;-6.40;99.90
20831;DHT22;10576;53.556;9.868;2022-12-18T06:47:47;-6.50;99.90
20831;DHT22;10576;53.556;9.868;2022-12-18T06:50:13;-6.40;99.90
20831;DHT22;10576;53.556;9.868;2022-12-18T06:52:39;-6.40;99.90
20831;DHT22;10576;53.556;9.868;2022-12-18T06:55:09;-6.40;99.90
20831;DHT22;10576;53.556;9.868;2022-12-18T06:57:36;-6.30;99.90
20831;DHT22;10576;53.556;9.868;2022-12-18T07:00:03;-6.20;99.90
20831;DHT22;10576;53.556;9.868;2022-12-18T07:02:29;-6.20;99.90
20831;DHT22;10576;53.556;9.868;2022-12-18T07:04:55;-6.30;99.90
20831;DHT22;10576;53.556;9.868;2022-12-18T07:07:21;-6.20;99.90
20831;DHT22;10576;53.556;9.868;2022-12-18T07:09:46;-6.20;99.90
20831;DHT22;10576;53.556;9.868;2022-12-18T07:12:12;-6.10;99.90
20831;DHT22;10576;53.556;9.868;2022-12-18T07:14:37;-6.00;99.90
20831;DHT22;10576;53.556;9.868;2022-12-18T07:17:03;-6.00;99.90
20831;DHT22;10576;53.556;9.868;2022-12-18T07:19:29;-6.00;99.90
20831;DHT22;10576;53.556;9.868;2022-12-18T07:21:55;-6.10;99.90
20831;DHT22;10576;53.556;9.868;2022-12-18T07:24:20;-6.20;99.90
20831;DHT22;10576;53.556;9.868;2022-12-18T07:26:46;-6.10;99.90
20831;DHT22;10576;53.556;9.868;2022-12-18T07:29:12;-6.10;99.90
20831;DHT22;10576;53.556;9.868;2022-12-18T07:31:38;-6.10;99.90
20831;DHT22;10576;53.556;9.868;2022-12-18T07:34:04;-6.10;99.90
20831;DHT22;10576;53.556;9.868;2022-12-18T07:36:29;-6.10;99.90
20831;DHT22;10576;53.556;9.868;2022-12-18T07:38:55;-6.00;99.90
20831;DHT22;10576;53.556;9.868;2022-12-18T07:41:21;-6.00;99.90
20831;DHT22;10576;53.556;9.868;2022-12-18T07:43:47;-6.00;99.90
20831;DHT22;10576;53.556;9.868;2022-12-18T07:46:14;-6.00;99.90
20831;DHT22;10576;53.556;9.868;2022-12-18T07:48:41;-5.90;99.90
20831;DHT22;10576;53.556;9.868;2022-12-18T07:51:07;-5.90;99.90
20831;DHT22;10576;53.556;9.868;2022-12-18T07:53:34;-5.80;99.90
20831;DHT22;10576;53.556;9.868;2022-12-18T07:56:03;-5.80;99.90
20831;DHT22;10576;53.556;9.868;2022-12-18T07:58:29;-5.70;99.90
20831;DHT22;10576;53.556;9.868;2022-12-18T08:01:05;-5.60;99.90
20831;DHT22;10576;53.556;9.868;2022-12-18T08:03:32;-5.60;99.90
20831;DHT22;10576;53.556;9.868;2022-12-18T08:06:02;-5.50;99.90
20831;DHT22;10576;53.556;9.868;2022-12-18T08:08:29;-5.40;99.90
20831;DHT22;10576;53.556;9.868;2022-12-18T08:10:55;-5.30;99.90
20831;DHT22;10576;53.556;9.868;2022-12-18T08:13:21;-5.20;99.90
20831;DHT22;10576;53.556;9.868;2022-12-18T08:15:58;-5.20;99.90
20831;DHT22;10576;53.556;9.868;2022-12-18T08:18:24;-5.30;99.90
20831;DHT22;10576;53.556;9.868;2022-12-18T08:20:50;-5.30;99.90
20831;DHT22;10576;53.556;9.868;2022-12-18T08:23:16;-5.40;99.90
20831;DHT22;10576;53.556;9.868;2022-12-18T08:25:42;-5.30;99.90
20831;DHT22;10576;53.556;9.868;2022-12-18T08:28:07;-5.30;99.90
20831;DHT22;10576;53.556;9.868;2022-12-18T08:30:33;-5.20;99.90
20831;DHT22;10576;53.556;9.868;2022-12-18T08:33:01;-5.20;99.90
20831;DHT22;10576;53.556;9.868;2022-12-18T08:35:27;-5.10;99.90
20831;DHT22;10576;53.556;9.868;2022-12-18T08:37:53;-5.00;99.90
20831;DHT22;10576;53.556;9.868;2022-12-18T08:40:19;-5.00;99.90
20831;DHT22;10576;53.556;9.868;2022-12-18T08:42:45;-5.00;99.90
20831;DHT22;10576;53.556;9.868;2022-12-18T08:45:49;-4.90;99.90
20831;DHT22;10576;53.556;9.868;2022-12-18T08:48:14;-4.70;99.90
20831;DHT22;10576;53.556;9.868;2022-12-18T08:50:40;-4.70;99.90
20831;DHT22;10576;53.556;9.868;2022-12-18T08:53:06;-4.50;99.90
20831;DHT22;10576;53.556;9.868;2022-12-18T08:55:31;-4.30;99.90
20831;DHT22;10576;53.556;9.868;2022-12-18T08:57:57;-4.20;99.90
20831;DHT22;10576;53.556;9.868;2022-12-18T09:00:23;-4.20;99.90
20831;DHT22;10576;53.556;9.868;2022-12-18T09:02:49;-4.10;99.90
20831;DHT22;10576;53.556;9.868;2022-12-18T09:05:15;-4.10;99.90
20831;DHT22;10576;53.556;9.868;2022-12-18T09:07:42;-4.00;99.90
20831;DHT22;10576;53.556;9.868;2022-12-18T09:10:07;-3.90;99.90
20831;DHT22;10576;53.556;9.868;2022-12-18T09:15:54;-3.60;99.90
20831;DHT22;10576;53.556;9.868;2022-12-18T09:18:21;-3.40;99.90
20831;DHT22;10576;53.556;9.868;2022-12-18T09:20:47;-3.40;99.90
20831;DHT22;10576;53.556;9.868;2022-12-18T09:23:13;-3.30;99.90
20831;DHT22;10576;53.556;9.868;2022-12-18T09:25:39;-3.30;99.90
20831;DHT22;10576;53.556;9.868;2022-12-18T09:28:10;-3.30;99.90
20831;DHT22;10576;53.556;9.868;2022-12-18T09:30:40;-3.20;99.90
20831;DHT22;10576;53.556;9.868;2022-12-18T09:33:06;-3.20;99.90
20831;DHT22;10576;53.556;9.868;2022-12-18T09:35:32;-3.10;99.90
20831;DHT22;10576;53.556;9.868;2022-12-18T09:37:58;-3.00;99.90
20831;DHT22;10576;53.556;9.868;2022-12-18T09:40:26;-3.00;99.90
20831;DHT22;10576;53.556;9.868;2022-12-18T09:43:00;-3.00;99.90
20831;DHT22;10576;53.556;9.868;2022-12-18T09:45:26;-3.00;99.90
20831;DHT22;10576;53.556;9.868;2022-12-18T09:47:54;-2.90;99.90
20831;DHT22;10576;53.556;9.868;2022-12-18T09:50:29;-2.90;99.90
20831;DHT22;10576;53.556;9.868;2022-12-18T09:52:58;-2.80;99.90
20831;DHT22;10576;53.556;9.868;2022-12-18T09:55:40;-2.70;99.90
20831;DHT22;10576;53.556;9.868;2022-12-18T10:00:43;-2.60;99.90
20831;DHT22;10576;53.556;9.868;2022-12-18T10:03:10;-2.50;99.90
20831;DHT22;10576;53.556;9.868;2022-12-18T10:10:53;-2.30;99.90
20831;DHT22;10576;53.556;9.868;2022-12-18T10:13:41;-2.30;99.90
20831;DHT22;10576;53.556;9.868;2022-12-18T10:25:18;-2.20;99.90
20831;DHT22;10576;53.556;9.868;2022-12-18T10:27:18;-2.10;99.90
20831;DHT22;10576;53.556;9.868;2022-12-18T10:29:46;-2.00;99.90
20831;DHT22;10576;53.556;9.868;2022-12-18T10:32:18;-2.00;99.90
20831;DHT22;10576;53.556;9.868;2022-12-18T10:34:46;-2.00;99.90
20831;DHT22;10576;53.556;9.868;2022-12-18T10:37:18;-2.00;99.90
20831;DHT22;10576;53.556;9.868;2022-12-18T10:39:45;-2.00;99.90
20831;DHT22;10576;53.556;9.868;2022-12-18T10:42:19;-1.90;99.90
20831;DHT22;10576;53.556;9.868;2022-12-18T10:44:45;-1.90;99.90
20831;DHT22;10576;53.556;9.868;2022-12-18T10:47:18;-1.80;99.90
20831;DHT22;10576;53.556;9.868;2022-12-18T10:49:50;-1.70;99.90
20831;DHT22;10576;53.556;9.868;2022-12-18T10:52:19;-1.70;99.90
20831;DHT22;10576;53.556;9.868;2022-12-18T10:55:04;-1.70;99.90
20831;DHT22;10576;53.556;9.868;2022-12-18T10:57:36;-1.60;99.90
20831;DHT22;10576;53.556;9.868;2022-12-18T11:00:30;-1.50;99.90
20831;DHT22;10576;53.556;9.868;2022-12-18T11:02:56;-1.50;99.90
20831;DHT22;10576;53.556;9.868;2022-12-18T11:05:25;-1.40;99.90
20831;DHT22;10576;53.556;9.868;2022-12-18T11:07:51;-1.40;99.90
20831;DHT22;10576;53.556;9.868;2022-12-18T11:10:21;-1.40;99.90
20831;DHT22;10576;53.556;9.868;2022-12-18T11:12:47;-1.30;99.90
20831;DHT22;10576;53.556;9.868;2022-12-18T11:15:18;-1.30;99.90
20831;DHT22;10576;53.556;9.868;2022-12-18T11:17:48;-1.20;99.90
20831;DHT22;10576;53.556;9.868;2022-12-18T11:23:04;-1.20;99.90
20831;DHT22;10576;53.556;9.868;2022-12-18T11:25:32;-1.20;99.90
20831;DHT22;10576;53.556;9.868;2022-12-18T11:31:23;-1.30;99.90
20831;DHT22;10576;53.556;9.868;2022-12-18T11:34:14;-1.40;99.90
20831;DHT22;10576;53.556;9.868;2022-12-18T11:36:45;-1.40;99.90
20831;DHT22;10576;53.556;9.868;2022-12-18T11:39:24;-1.40;99.90
20831;DHT22;10576;53.556;9.868;2022-12-18T11:47:47;-1.40;99.90
20831;DHT22;10576;53.556;9.868;2022-12-18T11:50:19;-1.30;99.90
20831;DHT22;10576;53.556;9.868;2022-12-18T11:52:46;-1.20;99.90
20831;DHT22;10576;53.556;9.868;2022-12-18T11:55:14;-1.10;99.90
20831;DHT22;10576;53.556;9.868;2022-12-18T11:57:47;-1.10;99.90
20831;DHT22;10576;53.556;9.868;2022-12-18T12:00:21;-1.10;99.90
20831;DHT22;10576;53.556;9.868;2022-12-18T12:19:25;-1.10;99.90
20831;DHT22;10576;53.556;9.868;2022-12-18T12:35:22;-1.10;99.90
20831;DHT22;10576;53.556;9.868;2022-12-18T12:38:16;-1.10;99.90
20831;DHT22;10576;53.556;9.868;2022-12-18T12:40:52;-1.10;99.90
20831;DHT22;10576;53.556;9.868;2022-12-18T12:46:04;-1.10;99.90
20831;DHT22;10576;53.556;9.868;2022-12-18T12:48:43;-1.20;99.90
20831;DHT22;10576;53.556;9.868;2022-12-18T12:53:41;-1.00;99.90
20831;DHT22;10576;53.556;9.868;2022-12-18T12:56:11;-1.10;99.90
20831;DHT22;10576;53.556;9.868;2022-12-18T12:59:04;-1.00;99.90
20831;DHT22;10576;53.556;9.868;2022-12-18T13:02:02;-1.00;99.90
20831;DHT22;10576;53.556;9.868;2022-12-18T13:04:39;-1.10;99.90
20831;DHT22;10576;53.556;9.868;2022-12-18T13:07:27;-1.20;99.90
20831;DHT22;10576;53.556;9.868;2022-12-18T13:13:14;-1.10;99.90
20831;DHT22;10576;53.556;9.868;2022-12-18T13:15:48;-1.10;99.90
20831;DHT22;10576;53.556;9.868;2022-12-18T13:18:18;-1.10;99.90
20831;DHT22;10576;53.556;9.868;2022-12-18T13:25:58;-1.30;99.90
20831;DHT22;10576;53.556;9.868;2022-12-18T13:31:00;-1.30;99.90
20831;DHT22;10576;53.556;9.868;2022-12-18T13:36:01;-1.40;99.90
20831;DHT22;10576;53.556;9.868;2022-12-18T13:46:28;-1.50;99.90
20831;DHT22;10576;53.556;9.868;2022-12-18T13:51:43;-1.50;99.90
20831;DHT22;10576;53.556;9.868;2022-12-18T13:54:39;-1.60;99.90
20831;DHT22;10576;53.556;9.868;2022-12-18T13:57:36;-1.70;99.90
20831;DHT22;10576;53.556;9.868;2022-12-18T14:02:48;-1.80;99.90
20831;DHT22;10576;53.556;9.868;2022-12-18T14:07:55;-1.70;99.90
20831;DHT22;10576;53.556;9.868;2022-12-18T14:10:24;-1.80;99.90
20831;DHT22;10576;53.556;9.868;2022-12-18T14:12:51;-1.70;99.90
20831;DHT22;10576;53.556;9.868;2022-12-18T14:17:58;-1.80;99.90
20831;DHT22;10576;53.556;9.868;2022-12-18T14:20:25;-1.90;99.90
20831;DHT22;10576;53.556;9.868;2022-12-18T14:22:52;-2.00;99.90
20831;DHT22;10576;53.556;9.868;2022-12-18T14:25:30;-2.10;99.90
20831;DHT22;10576;53.556;9.868;2022-12-18T14:28:14;-2.10;99.90
20831;DHT22;10576;53.556;9.868;2022-12-18T14:30:45;-2.10;99.90
20831;DHT22;10576;53.556;9.868;2022-12-18T14:35:56;-2.20;99.90
20831;DHT22;10576;53.556;9.868;2022-12-18T14:43:30;-2.30;99.90
20831;DHT22;10576;53.556;9.868;2022-12-18T14:45:57;-2.40;99.90
20831;DHT22;10576;53.556;9.868;2022-12-18T14:51:04;-2.40;99.90
20831;DHT22;10576;53.556;9.868;2022-12-18T14:53:39;-2.40;99.90
20831;DHT22;10576;53.556;9.868;2022-12-18T14:56:19;-2.40;99.90
20831;DHT22;10576;53.556;9.868;2022-12-18T14:58:47;-2.50;99.90
20831;DHT22;10576;53.556;9.868;2022-12-18T15:01:22;-2.50;99.90
20831;DHT22;10576;53.556;9.868;2022-12-18T15:03:51;-2.60;99.90
20831;DHT22;10576;53.556;9.868;2022-12-18T15:06:32;-2.50;99.90
20831;DHT22;10576;53.556;9.868;2022-12-18T15:09:00;-2.60;99.90
20831;DHT22;10576;53.556;9.868;2022-12-18T15:11:44;-2.70;99.90
20831;DHT22;10576;53.556;9.868;2022-12-18T15:14:32;-2.70;99.90
20831;DHT22;10576;53.556;9.868;2022-12-18T15:17:01;-2.70;99.90
20831;DHT22;10576;53.556;9.868;2022-12-18T15:19:48;-2.80;99.90
20831;DHT22;10576;53.556;9.868;2022-12-18T15:22:27;-2.80;99.90
20831;DHT22;10576;53.556;9.868;2022-12-18T15:24:54;-2.80;99.90
20831;DHT22;10576;53.556;9.868;2022-12-18T15:27:38;-2.80;99.90
20831;DHT22;10576;53.556;9.868;2022-12-18T15:32:33;-2.80;99.90
20831;DHT22;10576;53.556;9.868;2022-12-18T15:35:11;-2.80;99.90
20831;DHT22;10576;53.556;9.868;2022-12-18T15:37:39;-2.80;99.90
20831;DHT22;10576;53.556;9.868;2022-12-18T15:40:06;-2.80;99.90
20831;DHT22;10576;53.556;9.868;2022-12-18T15:42:32;-2.80;99.90
20831;DHT22;10576;53.556;9.868;2022-12-18T15:45:16;-2.80;99.90
20831;DHT22;10576;53.556;9.868;2022-12-18T15:47:42;-2.80;99.90
20831;DHT22;10576;53.556;9.868;2022-12-18T15:50:08;-2.80;99.90
20831;DHT22;10576;53.556;9.868;2022-12-18T15:52:40;-2.80;99.90
20831;DHT22;10576;53.556;9.868;2022-12-18T15:55:14;-2.70;99.90
20831;DHT22;10576;53.556;9.868;2022-12-18T15:57:58;-2.20;99.90
20831;DHT22;10576;53.556;9.868;2022-12-18T16:00:24;-2.70;99.90
20831;DHT22;10576;53.556;9.868;2022-12-18T16:02:50;-2.80;99.90
20831;DHT22;10576;53.556;9.868;2022-12-18T16:05:17;-2.70;99.90
20831;DHT22;10576;53.556;9.868;2022-12-18T16:07:44;-2.70;99.90
20831;DHT22;10576;53.556;9.868;2022-12-18T16:10:10;-2.80;99.90
20831;DHT22;10576;53.556;9.868;2022-12-18T16:12:36;-2.70;99.90
20831;DHT22;10576;53.556;9.868;2022-12-18T16:15:03;-2.70;99.90
20831;DHT22;10576;53.556;9.868;2022-12-18T16:17:29;-2.60;99.90
20831;DHT22;10576;53.556;9.868;2022-12-18T16:19:55;-2.70;99.90
20831;DHT22;10576;53.556;9.868;2022-12-18T16:22:23;-2.80;99.90
20831;DHT22;10576;53.556;9.868;2022-12-18T16:24:51;-2.80;99.90
20831;DHT22;10576;53.556;9.868;2022-12-18T16:27:17;-2.70;99.90
20831;DHT22;10576;53.556;9.868;2022-12-18T16:29:43;-2.70;99.90
20831;DHT22;10576;53.556;9.868;2022-12-18T16:32:18;-2.70;99.90
20831;DHT22;10576;53.556;9.868;2022-12-18T16:34:44;-2.80;99.90
20831;DHT22;10576;53.556;9.868;2022-12-18T16:37:12;-2.80;99.90
20831;DHT22;10576;53.556;9.868;2022-12-18T16:39:38;-2.90;99.90
20831;DHT22;10576;53.556;9.868;2022-12-18T16:42:10;-2.80;99.90
20831;DHT22;10576;53.556;9.868;2022-12-18T16:44:38;-2.80;99.90
20831;DHT22;10576;53.556;9.868;2022-12-18T16:47:03;-2.90;99.90
20831;DHT22;10576;53.556;9.868;2022-12-18T16:49:30;-2.90;99.90
20831;DHT22;10576;53.556;9.868;2022-12-18T16:51:56;-2.90;99.90
20831;DHT22;10576;53.556;9.868;2022-12-18T16:54:22;-2.90;99.90
20831;DHT22;10576;53.556;9.868;2022-12-18T16:56:47;-2.90;99.90
20831;DHT22;10576;53.556;9.868;2022-12-18T16:59:17;-2.90;99.90
20831;DHT22;10576;53.556;9.868;2022-12-18T17:01:43;-2.90;99.90
20831;DHT22;10576;53.556;9.868;2022-12-18T17:04:09;-2.90;99.90
20831;DHT22;10576;53.556;9.868;2022-12-18T17:06:39;-2.90;99.90
20831;DHT22;10576;53.556;9.868;2022-12-18T17:09:07;-3.00;99.90
20831;DHT22;10576;53.556;9.868;2022-12-18T17:11:34;-3.00;99.90
20831;DHT22;10576;53.556;9.868;2022-12-18T17:14:06;-2.90;99.90
20831;DHT22;10576;53.556;9.868;2022-12-18T17:16:31;-2.90;99.90
20831;DHT22;10576;53.556;9.868;2022-12-18T17:18:57;-2.90;99.90
20831;DHT22;10576;53.556;9.868;2022-12-18T17:21:23;-2.80;99.90
20831;DHT22;10576;53.556;9.868;2022-12-18T17:23:48;-2.80;99.90
20831;DHT22;10576;53.556;9.868;2022-12-18T17:26:14;-2.90;99.90
20831;DHT22;10576;53.556;9.868;2022-12-18T17:28:40;-2.90;99.90
20831;DHT22;10576;53.556;9.868;2022-12-18T17:31:17;-3.00;99.90
20831;DHT22;10576;53.556;9.868;2022-12-18T17:33:44;-2.90;99.90
20831;DHT22;10576;53.556;9.868;2022-12-18T17:36:10;-2.90;99.90
20831;DHT22;10576;53.556;9.868;2022-12-18T17:38:36;-2.90;99.90
20831;DHT22;10576;53.556;9.868;2022-12-18T17:41:08;-2.90;99.90
20831;DHT22;10576;53.556;9.868;2022-12-18T17:43:34;-2.90;99.90
20831;DHT22;10576;53.556;9.868;2022-12-18T17:46:02;-2.90;99.90
20831;DHT22;10576;53.556;9.868;2022-12-18T17:48:28;-2.90;99.90
20831;DHT22;10576;53.556;9.868;2022-12-18T17:50:54;-3.00;99.90
20831;DHT22;10576;53.556;9.868;2022-12-18T17:53:19;-2.90;99.90
20831;DHT22;10576;53.556;9.868;2022-12-18T17:55:53;-2.90;99.90
20831;DHT22;10576;53.556;9.868;2022-12-18T17:58:20;-2.90;99.90
20831;DHT22;10576;53.556;9.868;2022-12-18T18:00:45;-2.90;99.90
20831;DHT22;10576;53.556;9.868;2022-12-18T18:03:12;-2.80;99.90
20831;DHT22;10576;53.556;9.868;2022-12-18T18:05:37;-2.80;99.90
20831;DHT22;10576;53.556;9.868;2022-12-18T18:08:03;-2.80;99.90
20831;DHT22;10576;53.556;9.868;2022-12-18T18:10:29;-2.80;99.90